Time;durP1;ratioP1;P1;durP2;ratioP2;P2;SDS_P1;SDS_P2;PMS_P1;PMS_P2;Temp;Humidity;BMP_temperature;BMP_pressure;BME280_temperature;BME280_humidity;BME280_pressure;Samples;Min_cycle;Max_cycle;Signal;HPM_P1;HPM_P2
2021/09/16 00:00:16;;;;;;;14.23;7.50;;;21.90;95.00;;;;;;5070610;28;20071;-61
2021/09/16 00:02:42;;;;;;;17.33;8.23;;;21.80;95.00;;;;;;5074063;28;20111;-60
2021/09/16 00:05:09;;;;;;;14.80;8.05;;;21.90;94.90;;;;;;5053819;28;20370;-60
2021/09/16 00:07:34;;;;;;;23.27;8.52;;;21.90;94.90;;;;;;5048824;28;21101;-60
2021/09/16 00:10:00;;;;;;;19.23;8.02;;;21.80;94.90;;;;;;5068720;28;20040;-60
2021/09/16 00:12:25;;;;;;;14.68;7.13;;;21.80;94.90;;;;;;5065022;28;20036;-60
2021/09/16 00:14:51;;;;;;;24.90;7.90;;;21.80;94.90;;;;;;5064230;28;20063;-60
2021/09/16 00:17:16;;;;;;;16.17;7.35;;;21.80;94.90;;;;;;5060410;28;20537;-60
2021/09/16 00:19:42;;;;;;;18.92;7.20;;;21.80;94.90;;;;;;5046233;28;20028;-60
2021/09/16 00:22:07;;;;;;;24.67;7.82;;;21.80;95.30;;;;;;5071003;28;20108;-60
2021/09/16 00:24:33;;;;;;;21.30;7.60;;;21.80;94.90;;;;;;5067437;28;20052;-60
2021/09/16 00:26:58;;;;;;;17.02;7.55;;;21.80;95.00;;;;;;5045030;28;20344;-60
2021/09/16 00:29:24;;;;;;;18.48;8.73;;;21.80;95.00;;;;;;5050876;28;20106;-60
2021/09/16 00:31:49;;;;;;;19.73;8.02;;;21.70;95.00;;;;;;5057062;28;20129;-60
2021/09/16 00:34:15;;;;;;;20.67;8.75;;;21.70;95.10;;;;;;5068168;28;20550;-60
2021/09/16 00:36:40;;;;;;;19.98;8.65;;;21.70;95.10;;;;;;5063927;28;20039;-60
2021/09/16 00:39:06;;;;;;;20.90;8.77;;;21.70;95.10;;;;;;5047769;28;20068;-60
2021/09/16 00:41:31;;;;;;;19.98;7.85;;;21.70;95.10;;;;;;5048437;28;20058;-60
2021/09/16 00:43:57;;;;;;;18.33;8.60;;;21.70;95.10;;;;;;5072181;28;20108;-60
2021/09/16 00:46:23;;;;;;;18.52;8.60;;;21.70;95.10;;;;;;5052808;28;20036;-60
2021/09/16 00:48:48;;;;;;;14.90;8.02;;;21.70;95.20;;;;;;5068166;28;20537;-61
2021/09/16 00:51:14;;;;;;;14.65;8.10;;;21.70;95.20;;;;;;5062381;28;20502;-60
2021/09/16 00:53:39;;;;;;;14.35;7.38;;;21.60;95.10;;;;;;5067280;28;20138;-60
2021/09/16 00:56:05;;;;;;;10.75;7.18;;;21.60;95.10;;;;;;5068865;28;20063;-60
2021/09/16 00:58:30;;;;;;;16.60;7.22;;;21.60;95.10;;;;;;5029526;28;20376;-60
2021/09/16 01:00:56;;;;;;;13.45;8.00;;;21.60;95.10;;;;;;5047331;28;20416;-60
2021/09/16 01:03:22;;;;;;;15.65;7.80;;;21.60;95.10;;;;;;5043993;28;20748;-60
2021/09/16 01:05:50;;;;;;;14.65;7.47;;;21.60;95.10;;;;;;5062410;28;20071;-60
2021/09/16 01:08:15;;;;;;;17.15;7.95;;;21.60;95.10;;;;;;5046283;28;20476;-60
2021/09/16 01:10:41;;;;;;;11.25;7.55;;;21.60;95.10;;;;;;5065379;28;20081;-60
2021/09/16 01:13:09;;;;;;;12.75;8.18;;;21.60;95.10;;;;;;5063703;28;20040;-60
2021/09/16 01:15:35;;;;;;;19.58;7.63;;;21.60;95.20;;;;;;5066772;28;20089;-60
2021/09/16 01:18:00;;;;;;;12.43;8.07;;;21.60;95.20;;;;;;5034548;28;20085;-60
2021/09/16 01:20:26;;;;;;;16.45;7.75;;;21.60;95.30;;;;;;5062465;28;20067;-60
2021/09/16 01:22:52;;;;;;;12.82;7.40;;;21.60;95.30;;;;;;5067330;28;20116;-60
2021/09/16 01:25:17;;;;;;;12.63;7.43;;;21.50;95.30;;;;;;5080032;28;20063;-60
2021/09/16 01:27:44;;;;;;;12.95;7.40;;;21.60;95.40;;;;;;5083324;28;20505;-60
2021/09/16 01:30:10;;;;;;;17.05;8.10;;;21.50;95.30;;;;;;5082572;28;20028;-60
2021/09/16 01:32:36;;;;;;;10.02;7.43;;;21.50;95.30;;;;;;5065206;28;20028;-60
2021/09/16 01:35:01;;;;;;;10.38;7.43;;;21.50;95.30;;;;;;5062950;28;20114;-60
2021/09/16 01:37:27;;;;;;;13.88;7.57;;;21.50;95.30;;;;;;5084506;28;20375;-60
2021/09/16 01:39:52;;;;;;;10.63;7.35;;;21.50;95.30;;;;;;5083354;28;20047;-60
2021/09/16 01:42:18;;;;;;;15.95;7.43;;;21.50;95.30;;;;;;5082810;28;20028;-60
2021/09/16 01:44:46;;;;;;;11.88;7.25;;;21.50;95.20;;;;;;5082667;28;20452;-60
2021/09/16 01:47:12;;;;;;;10.45;6.97;;;21.50;95.10;;;;;;5065328;28;20400;-60
2021/09/16 01:49:37;;;;;;;10.65;6.57;;;21.50;95.00;;;;;;5081888;28;20016;-60
2021/09/16 01:52:03;;;;;;;10.35;6.95;;;21.50;95.00;;;;;;5065721;28;20371;-60
2021/09/16 01:54:29;;;;;;;13.48;7.57;;;21.50;95.00;;;;;;5080268;28;20043;-60
2021/09/16 01:56:54;;;;;;;14.25;7.10;;;21.50;95.00;;;;;;5084317;28;20058;-60
2021/09/16 01:59:20;;;;;;;12.27;6.50;;;21.50;95.00;;;;;;5084655;28;20486;-60
2021/09/16 02:01:45;;;;;;;14.32;6.28;;;21.50;95.00;;;;;;5083229;28;20036;-60
2021/09/16 02:04:11;;;;;;;12.15;6.40;;;21.50;95.00;;;;;;5085599;28;20483;-60
2021/09/16 02:06:36;;;;;;;9.77;6.47;;;21.50;95.00;;;;;;5059449;28;20504;-60
2021/09/16 02:09:02;;;;;;;12.95;6.82;;;21.50;95.00;;;;;;5081576;28;20040;-60
2021/09/16 02:11:27;;;;;;;13.20;6.65;;;21.50;95.00;;;;;;5082254;28;20028;-60
2021/09/16 02:13:53;;;;;;;9.70;6.40;;;21.50;95.00;;;;;;5081186;28;20134;-60
2021/09/16 02:16:18;;;;;;;13.77;6.57;;;21.40;95.00;;;;;;5083609;28;20441;-61
2021/09/16 02:18:44;;;;;;;11.00;6.35;;;21.40;95.00;;;;;;5081870;28;20043;-60
2021/09/16 02:21:09;;;;;;;8.75;6.32;;;21.40;95.00;;;;;;5064850;28;20055;-60
2021/09/16 02:23:35;;;;;;;12.27;6.68;;;21.40;95.00;;;;;;5073913;28;20724;-60
2021/09/16 02:26:00;;;;;;;15.73;6.72;;;21.40;95.00;;;;;;5082225;28;20230;-61
2021/09/16 02:28:26;;;;;;;11.98;5.82;;;21.40;95.00;;;;;;5076236;28;20030;-61
2021/09/16 02:30:51;;;;;;;12.32;7.00;;;21.40;95.00;;;;;;5083321;28;20038;-60
2021/09/16 02:33:17;;;;;;;11.45;6.65;;;21.40;95.10;;;;;;5062811;28;20054;-60
2021/09/16 02:35:42;;;;;;;12.18;6.63;;;21.40;95.10;;;;;;5080755;28;20561;-60
2021/09/16 02:38:08;;;;;;;13.55;7.07;;;21.40;95.00;;;;;;5082327;28;20157;-60
2021/09/16 02:40:33;;;;;;;8.45;6.55;;;21.40;95.00;;;;;;5081564;28;20107;-60
2021/09/16 02:42:59;;;;;;;15.05;6.43;;;21.40;95.00;;;;;;5082595;28;20082;-60
2021/09/16 02:45:24;;;;;;;8.60;6.18;;;21.40;95.00;;;;;;5080710;28;20677;-59
2021/09/16 02:47:50;;;;;;;13.13;6.43;;;21.40;95.00;;;;;;5049097;28;20042;-60
2021/09/16 02:50:15;;;;;;;13.25;6.30;;;21.40;95.00;;;;;;5081923;28;20046;-60
2021/09/16 02:52:41;;;;;;;11.40;6.22;;;21.30;95.00;;;;;;5065912;28;20057;-60
2021/09/16 02:55:07;;;;;;;12.63;6.43;;;21.40;95.00;;;;;;5062009;28;20032;-60
2021/09/16 02:57:32;;;;;;;16.13;6.30;;;21.30;95.00;;;;;;5076316;28;20494;-60
2021/09/16 02:59:58;;;;;;;10.93;6.30;;;21.30;95.00;;;;;;5062960;28;20031;-61
2021/09/16 03:02:23;;;;;;;12.70;6.72;;;21.40;95.10;;;;;;5080917;28;20045;-60
2021/09/16 03:04:49;;;;;;;12.25;6.15;;;21.30;95.10;;;;;;5065305;28;20036;-60
2021/09/16 03:07:15;;;;;;;13.82;6.13;;;21.30;95.10;;;;;;5084350;28;20048;-60
2021/09/16 03:09:40;;;;;;;12.02;5.75;;;21.30;95.10;;;;;;5081179;28;20040;-61
2021/09/16 03:12:06;;;;;;;8.63;6.47;;;21.30;95.10;;;;;;5063832;28;20449;-60
2021/09/16 03:14:31;;;;;;;8.68;5.47;;;21.30;95.10;;;;;;5084646;28;20447;-61
2021/09/16 03:16:57;;;;;;;12.65;6.60;;;21.30;95.20;;;;;;5084719;28;20125;-60
2021/09/16 03:19:22;;;;;;;14.00;5.97;;;21.30;95.20;;;;;;5064366;28;20043;-61
2021/09/16 03:21:48;;;;;;;11.57;5.60;;;21.30;95.20;;;;;;5067374;28;20023;-60
2021/09/16 03:24:13;;;;;;;13.98;6.50;;;21.30;95.30;;;;;;5082375;28;20143;-60
2021/09/16 03:26:39;;;;;;;12.93;5.40;;;21.30;95.20;;;;;;5066636;28;20701;-60
2021/09/16 03:29:04;;;;;;;23.10;6.90;;;21.30;95.30;;;;;;5084286;28;20443;-60
2021/09/16 03:31:31;;;;;;;42.72;8.98;;;21.30;95.30;;;;;;5086065;28;20064;-60
2021/09/16 03:33:57;;;;;;;61.00;10.48;;;21.30;95.30;;;;;;5065736;28;20387;-60
2021/09/16 03:36:22;;;;;;;51.83;8.90;;;21.30;95.30;;;;;;5083184;28;20028;-60
2021/09/16 03:38:48;;;;;;;36.72;8.15;;;21.20;95.20;;;;;;5082348;28;20535;-60
2021/09/16 03:41:13;;;;;;;46.83;8.25;;;21.20;95.20;;;;;;5085792;28;20036;-60
2021/09/16 03:43:39;;;;;;;40.15;8.52;;;21.20;95.20;;;;;;5084170;28;20167;-60
2021/09/16 03:46:04;;;;;;;50.03;8.75;;;21.20;95.20;;;;;;5087046;28;20479;-60
2021/09/16 03:48:30;;;;;;;36.75;8.43;;;21.30;95.10;;;;;;5082016;28;20077;-60
2021/09/16 03:50:55;;;;;;;71.20;9.18;;;21.20;95.10;;;;;;5066240;28;20107;-60
2021/09/16 03:53:21;;;;;;;119.50;12.68;;;21.20;95.00;;;;;;5084596;28;20028;-61
2021/09/16 03:55:46;;;;;;;60.03;9.60;;;21.20;95.10;;;;;;5066165;28;20028;-60
2021/09/16 03:58:12;;;;;;;63.80;10.05;;;21.20;95.10;;;;;;5084763;28;20020;-60
2021/09/16 04:00:37;;;;;;;74.43;10.43;;;21.20;95.00;;;;;;5083371;28;20158;-60
2021/09/16 04:03:10;;;;;;;72.60;9.82;;;21.20;95.00;;;;;;5064647;28;20692;-60
2021/09/16 04:05:36;;;;;;;69.70;8.88;;;21.20;95.00;;;;;;5064993;28;20173;-60
2021/09/16 04:08:02;;;;;;;64.78;9.23;;;21.20;95.00;;;;;;5065290;28;20024;-60
2021/09/16 04:10:27;;;;;;;59.97;9.52;;;21.20;95.00;;;;;;5083286;28;20035;-60
2021/09/16 04:12:53;;;;;;;56.30;10.00;;;21.20;94.90;;;;;;5064704;28;20036;-60
2021/09/16 04:15:18;;;;;;;82.63;10.50;;;21.20;94.90;;;;;;5066615;28;20070;-60
2021/09/16 04:17:44;;;;;;;89.60;10.85;;;21.20;94.90;;;;;;5085543;28;20032;-60
2021/09/16 04:20:10;;;;;;;95.15;11.27;;;21.20;94.80;;;;;;5083860;28;20032;-61
2021/09/16 04:22:35;;;;;;;69.93;10.57;;;21.20;94.80;;;;;;5083294;28;20020;-60
2021/09/16 04:25:01;;;;;;;71.43;9.77;;;21.20;94.90;;;;;;5082134;28;20084;-60
2021/09/16 04:27:26;;;;;;;81.57;10.55;;;21.20;95.00;;;;;;5066079;28;20067;-60
2021/09/16 04:29:52;;;;;;;75.63;9.48;;;21.20;95.00;;;;;;5085679;28;20095;-60
2021/09/16 04:32:17;;;;;;;59.95;8.73;;;21.20;95.10;;;;;;5083139;28;20034;-60
2021/09/16 04:34:43;;;;;;;71.18;9.38;;;21.20;95.10;;;;;;5083053;28;20628;-60
2021/09/16 04:37:08;;;;;;;51.63;8.93;;;21.20;95.10;;;;;;5082700;28;20060;-60
2021/09/16 04:39:34;;;;;;;53.20;8.68;;;21.20;95.10;;;;;;5085885;28;20036;-60
2021/09/16 04:41:59;;;;;;;51.95;8.45;;;21.10;95.00;;;;;;5049120;28;20454;-60
2021/09/16 04:44:25;;;;;;;49.25;7.85;;;21.20;95.00;;;;;;5084362;28;20024;-60
2021/09/16 04:46:50;;;;;;;50.42;8.07;;;21.20;95.00;;;;;;5083746;28;20511;-60
2021/09/16 04:49:16;;;;;;;57.90;8.98;;;21.20;95.10;;;;;;5082845;28;20040;-60
2021/09/16 04:51:41;;;;;;;55.53;8.85;;;21.20;95.10;;;;;;5064497;28;20028;-60
2021/09/16 04:54:08;;;;;;;43.40;7.15;;;21.20;95.10;;;;;;5082331;28;20028;-61
2021/09/16 04:56:33;;;;;;;54.90;8.95;;;21.20;95.00;;;;;;5083611;28;20259;-60
2021/09/16 04:58:59;;;;;;;53.10;8.27;;;21.20;95.00;;;;;;5046140;28;20673;-60
2021/09/16 05:01:24;;;;;;;44.90;7.85;;;21.20;95.00;;;;;;5080065;28;20648;-60
2021/09/16 05:03:50;;;;;;;50.30;7.53;;;21.20;95.00;;;;;;5082656;28;20063;-60
2021/09/16 05:06:15;;;;;;;42.55;7.93;;;21.20;95.10;;;;;;5082654;28;20081;-60
2021/09/16 05:08:42;;;;;;;49.38;7.97;;;21.20;95.20;;;;;;5082886;28;20105;-61
2021/09/16 05:11:08;;;;;;;51.30;8.02;;;21.20;95.30;;;;;;5082653;28;20024;-60
2021/09/16 05:13:34;;;;;;;54.72;9.45;;;21.10;95.30;;;;;;5082623;28;20090;-60
2021/09/16 05:15:59;;;;;;;71.78;9.00;;;21.20;95.30;;;;;;5083209;28;20024;-60
2021/09/16 05:18:25;;;;;;;53.80;7.38;;;21.10;95.20;;;;;;5082913;28;20982;-60
2021/09/16 05:20:51;;;;;;;63.65;8.63;;;21.10;95.20;;;;;;5082514;28;20150;-60
2021/09/16 05:23:16;;;;;;;46.40;7.30;;;21.10;95.10;;;;;;5082459;28;20072;-60
2021/09/16 05:25:42;;;;;;;46.55;7.07;;;21.10;95.10;;;;;;5080480;28;20032;-60
2021/09/16 05:28:07;;;;;;;38.58;6.88;;;21.10;95.20;;;;;;5083354;28;20104;-60
2021/09/16 05:30:33;;;;;;;35.80;6.38;;;21.10;95.20;;;;;;5083668;28;20031;-60
2021/09/16 05:32:58;;;;;;;41.17;6.63;;;21.10;95.20;;;;;;5082894;28;20036;-60
2021/09/16 05:35:24;;;;;;;38.70;7.07;;;21.10;95.10;;;;;;5081337;28;20044;-60
2021/09/16 05:37:49;;;;;;;39.40;7.78;;;21.10;95.10;;;;;;5062253;28;20094;-60
2021/09/16 05:40:15;;;;;;;32.50;6.75;;;21.10;95.00;;;;;;5081964;28;20036;-60
2021/09/16 05:42:40;;;;;;;38.25;6.60;;;21.10;95.00;;;;;;5065315;28;20097;-60
2021/09/16 05:45:06;;;;;;;38.70;6.70;;;21.10;95.00;;;;;;5065553;28;20056;-60
2021/09/16 05:47:32;;;;;;;22.90;6.35;;;21.10;95.00;;;;;;5062725;28;20126;-60
2021/09/16 05:49:58;;;;;;;29.50;6.72;;;21.10;94.90;;;;;;5080030;28;20071;-60
2021/09/16 05:52:23;;;;;;;38.08;6.30;;;21.10;94.90;;;;;;5047760;28;20166;-60
2021/09/16 05:54:49;;;;;;;36.70;6.13;;;21.10;94.90;;;;;;5065846;28;20036;-60
2021/09/16 05:57:14;;;;;;;26.02;5.55;;;21.10;94.90;;;;;;5063642;28;20510;-60
2021/09/16 05:59:40;;;;;;;29.35;5.60;;;21.10;94.90;;;;;;5063342;28;20101;-60
2021/09/16 06:02:05;;;;;;;27.75;6.38;;;21.10;94.80;;;;;;5064981;28;20028;-60
2021/09/16 06:04:31;;;;;;;25.45;5.80;;;21.10;95.10;;;;;;5079778;28;20024;-60
2021/09/16 06:06:59;;;;;;;22.45;5.60;;;21.10;94.80;;;;;;5078347;28;20089;-60
2021/09/16 06:09:24;;;;;;;21.45;5.22;;;21.10;94.80;;;;;;5080984;28;20036;-60
2021/09/16 06:11:50;;;;;;;17.35;5.40;;;21.10;94.80;;;;;;5080358;28;20028;-60
2021/09/16 06:14:15;;;;;;;28.33;6.32;;;21.10;94.80;;;;;;5081043;28;20020;-60
2021/09/16 06:16:41;;;;;;;23.58;4.72;;;21.10;94.80;;;;;;5062536;28;20047;-60
2021/09/16 06:19:06;;;;;;;38.00;6.15;;;21.10;95.10;;;;;;5080065;28;20108;-60
2021/09/16 06:21:32;;;;;;;69.82;8.70;;;21.10;94.80;;;;;;5082583;28;20028;-60
2021/09/16 06:23:57;;;;;;;79.93;9.52;;;21.10;94.80;;;;;;5072377;28;20048;-60
2021/09/16 06:26:23;;;;;;;82.85;9.88;;;21.20;94.80;;;;;;5054095;28;20389;-60
2021/09/16 06:28:49;;;;;;;88.63;11.02;;;21.10;94.70;;;;;;5055867;28;20546;-60
2021/09/16 06:31:15;;;;;;;65.68;8.88;;;21.10;94.70;;;;;;5055667;28;20025;-60
2021/09/16 06:33:40;;;;;;;72.03;9.80;;;21.10;94.70;;;;;;5042877;28;20027;-60
2021/09/16 06:36:06;;;;;;;55.30;8.43;;;21.20;94.70;;;;;;5034374;28;20032;-61
2021/09/16 06:38:31;;;;;;;54.70;9.40;;;21.10;94.60;;;;;;5059019;28;20078;-60
2021/09/16 06:40:57;;;;;;;49.38;7.82;;;21.10;94.60;;;;;;5032285;28;20033;-60
2021/09/16 06:43:22;;;;;;;47.80;7.78;;;21.20;94.80;;;;;;5058385;28;20044;-61
2021/09/16 06:45:48;;;;;;;42.45;7.00;;;21.20;94.70;;;;;;5056648;28;20043;-60
2021/09/16 06:48:14;;;;;;;41.35;6.63;;;21.20;94.60;;;;;;5041978;28;20490;-60
2021/09/16 06:50:39;;;;;;;42.83;7.43;;;21.20;94.50;;;;;;5060945;28;20048;-60
2021/09/16 06:53:05;;;;;;;81.70;8.82;;;21.20;94.50;;;;;;5060774;28;20029;-61
2021/09/16 06:55:30;;;;;;;47.70;8.45;;;21.20;94.50;;;;;;5059371;28;20045;-60
2021/09/16 06:57:56;;;;;;;61.53;9.30;;;21.20;94.60;;;;;;5062068;28;20389;-60
2021/09/16 07:00:22;;;;;;;76.65;9.73;;;21.20;94.60;;;;;;5059353;28;20035;-60
2021/09/16 07:02:49;;;;;;;67.25;9.20;;;21.20;94.70;;;;;;5059120;28;20057;-60
2021/09/16 07:05:14;;;;;;;70.88;8.30;;;21.20;94.70;;;;;;5039950;28;20032;-61
2021/09/16 07:07:40;;;;;;;56.97;8.73;;;21.20;94.90;;;;;;5057594;28;20060;-60
2021/09/16 07:10:06;;;;;;;71.22;9.60;;;21.20;95.00;;;;;;5041849;28;20032;-61
2021/09/16 07:12:32;;;;;;;52.05;8.05;;;21.20;95.20;;;;;;5045567;28;20588;-60
2021/09/16 07:14:58;;;;;;;50.85;8.23;;;21.20;95.30;;;;;;5052115;28;20025;-59
2021/09/16 07:17:24;;;;;;;41.03;7.55;;;21.10;95.40;;;;;;5055957;28;20047;-60
2021/09/16 07:19:49;;;;;;;43.22;7.93;;;21.10;95.70;;;;;;5035653;28;20111;-60
2021/09/16 07:22:15;;;;;;;60.60;7.72;;;21.10;95.50;;;;;;5009482;28;20103;-60
2021/09/16 07:24:41;;;;;;;51.25;7.50;;;21.10;95.60;;;;;;5075926;28;20142;-60
2021/09/16 07:27:06;;;;;;;49.10;7.68;;;21.10;95.50;;;;;;5082680;28;20066;-59
2021/09/16 07:29:32;;;;;;;49.17;6.90;;;21.10;95.60;;;;;;5081228;28;20030;-60
2021/09/16 07:31:57;;;;;;;30.65;5.35;;;21.10;95.70;;;;;;5082239;28;20035;-59
2021/09/16 07:34:23;;;;;;;29.80;5.90;;;21.10;95.80;;;;;;5077593;28;20126;-60
2021/09/16 07:36:48;;;;;;;32.13;6.20;;;21.10;96.00;;;;;;5060571;28;20288;-59
2021/09/16 07:39:15;;;;;;;37.20;5.90;;;21.00;96.10;;;;;;5043085;28;20118;-60
2021/09/16 07:41:41;;;;;;;26.50;5.68;;;21.00;96.10;;;;;;5075467;28;20055;-61
2021/09/16 07:44:06;;;;;;;36.13;7.00;;;21.10;96.20;;;;;;5080487;28;20055;-59
2021/09/16 07:46:32;;;;;;;37.72;6.78;;;21.00;96.20;;;;;;5080980;28;20020;-60
2021/09/16 07:48:58;;;;;;;37.17;6.75;;;21.10;96.30;;;;;;5050819;28;20040;-61
2021/09/16 07:51:24;;;;;;;38.05;6.82;;;21.00;96.30;;;;;;5043875;28;20032;-59
2021/09/16 07:53:49;;;;;;;42.83;7.03;;;21.00;96.40;;;;;;5071055;28;20028;-60
2021/09/16 07:56:15;;;;;;;44.25;6.93;;;21.00;96.30;;;;;;5057126;28;20580;-61
2021/09/16 07:58:43;;;;;;;55.20;7.57;;;21.00;96.50;;;;;;5078024;28;20131;-60
2021/09/16 08:01:08;;;;;;;63.80;8.32;;;21.00;96.60;;;;;;5076581;28;20035;-60
2021/09/16 08:03:34;;;;;;;48.22;7.70;;;21.00;96.70;;;;;;5075302;28;20044;-60
2021/09/16 08:06:00;;;;;;;41.72;7.57;;;21.00;96.70;;;;;;5059048;28;20020;-60
2021/09/16 08:08:25;;;;;;;45.00;6.85;;;21.10;96.70;;;;;;5081179;28;20111;-61
2021/09/16 08:10:51;;;;;;;46.80;7.22;;;21.10;97.10;;;;;;5053756;28;20033;-60
2021/09/16 08:13:16;;;;;;;42.35;6.78;;;21.20;96.80;;;;;;5057835;28;20047;-60
2021/09/16 08:15:42;;;;;;;47.78;7.93;;;21.10;96.70;;;;;;5060094;28;20565;-61
2021/09/16 08:18:07;;;;;;;46.08;7.15;;;21.20;96.60;;;;;;5060967;28;20051;-60
2021/09/16 08:20:39;;;;;;;60.85;7.78;;;21.20;96.50;;;;;;5082634;28;20051;-60
2021/09/16 08:23:04;;;;;;;57.70;7.57;;;21.20;96.40;;;;;;5055392;28;20050;-61
2021/09/16 08:25:30;;;;;;;48.60;6.90;;;21.30;96.70;;;;;;5041742;28;20037;-61
2021/09/16 08:27:56;;;;;;;53.35;7.68;;;21.30;96.70;;;;;;5058178;28;20044;-60
2021/09/16 08:30:21;;;;;;;73.82;7.60;;;21.30;96.70;;;;;;5057904;28;20032;-60
2021/09/16 08:32:48;;;;;;;53.00;8.80;;;21.30;96.70;;;;;;5041731;28;20036;-61
2021/09/16 08:35:14;;;;;;;54.38;6.85;;;21.40;96.90;;;;;;5056832;28;20029;-60
2021/09/16 08:37:40;;;;;;;49.72;7.88;;;21.40;96.80;;;;;;5041611;28;20314;-59
2021/09/16 08:40:06;;;;;;;41.75;6.72;;;21.40;96.80;;;;;;5053167;28;20056;-60
2021/09/16 08:42:32;;;;;;;56.65;8.60;;;21.40;96.80;;;;;;5039045;28;20570;-59
2021/09/16 08:44:57;;;;;;;57.72;8.73;;;21.50;96.80;;;;;;5042693;28;20058;-60
2021/09/16 08:47:25;;;;;;;44.58;7.22;;;21.50;96.90;;;;;;5059935;28;20396;-60
2021/09/16 08:49:52;;;;;;;60.10;7.72;;;21.50;96.80;;;;;;5059160;28;20029;-60
2021/09/16 08:52:18;;;;;;;57.55;7.32;;;21.50;96.80;;;;;;5040985;28;20171;-61
2021/09/16 08:54:43;;;;;;;66.18;8.63;;;21.50;96.80;;;;;;5060941;28;21082;-60
2021/09/16 08:57:12;;;;;;;45.55;7.72;;;21.50;96.70;;;;;;5041158;28;20557;-61
2021/09/16 08:59:38;;;;;;;75.97;7.97;;;21.50;96.70;;;;;;5041787;28;20135;-60
2021/09/16 09:02:03;;;;;;;69.32;8.70;;;21.60;97.00;;;;;;5039539;28;20044;-60
2021/09/16 09:04:29;;;;;;;47.00;7.25;;;21.60;96.90;;;;;;5056214;28;20048;-61
2021/09/16 09:07:04;;;;;;;59.85;9.07;;;21.60;96.70;;;;;;5056940;28;20222;-60
2021/09/16 09:09:30;;;;;;;39.08;6.05;;;21.60;96.60;;;;;;5036060;28;20210;-60
2021/09/16 09:12:11;;;;;;;69.65;8.32;;;21.60;96.40;;;;;;5072230;28;20059;-60
2021/09/16 09:14:37;;;;;;;64.00;7.53;;;21.70;96.40;;;;;;5051661;28;20036;-60
2021/09/16 09:17:18;;;;;;;46.47;6.90;;;21.70;96.10;;;;;;5054380;28;20150;-60
2021/09/16 09:19:44;;;;;;;59.78;7.05;;;21.90;95.90;;;;;;5049585;28;20060;-61
2021/09/16 09:22:09;;;;;;;40.75;6.20;;;21.80;95.80;;;;;;5053325;28;20032;-60
2021/09/16 09:24:41;;;;;;;55.30;7.85;;;21.80;95.50;;;;;;5059318;28;20040;-60
2021/09/16 09:27:24;;;;;;;53.63;7.35;;;21.80;95.70;;;;;;5059246;28;20104;-61
2021/09/16 09:30:18;;;;;;;89.22;8.82;;;21.90;95.70;;;;;;5032838;28;20082;-60
2021/09/16 09:32:49;;;;;;;57.28;8.95;;;21.90;95.50;;;;;;5048467;28;20075;-60
2021/09/16 09:35:31;;;;;;;69.25;8.55;;;22.00;95.50;;;;;;5024562;28;20036;-61
2021/09/16 09:37:58;;;;;;;68.32;8.65;;;22.00;95.50;;;;;;5052591;28;20029;-60
2021/09/16 09:40:32;;;;;;;78.80;8.82;;;21.90;95.60;;;;;;5022504;28;20025;-60
2021/09/16 09:43:37;;;;;;;70.00;8.57;;;22.00;95.60;;;;;;5040150;28;20021;-58
2021/09/16 09:46:02;;;;;;;89.78;9.18;;;22.10;95.40;;;;;;4954542;28;20198;-60
2021/09/16 09:48:28;;;;;;;63.17;8.75;;;22.10;95.20;;;;;;4973122;28;20038;-60
2021/09/16 09:50:54;;;;;;;78.28;9.57;;;22.20;95.20;;;;;;5013475;28;20044;-60
2021/09/16 09:53:19;;;;;;;81.90;7.88;;;22.20;95.10;;;;;;5058374;28;20035;-60
2021/09/16 09:55:45;;;;;;;56.80;8.07;;;22.20;95.10;;;;;;5057910;28;20024;-61
2021/09/16 09:58:11;;;;;;;68.05;9.60;;;22.20;94.90;;;;;;5045229;28;20044;-60
2021/09/16 10:00:36;;;;;;;82.15;8.23;;;22.20;94.80;;;;;;5025694;28;20034;-60
2021/09/16 10:03:02;;;;;;;58.13;6.20;;;22.20;94.60;;;;;;5039826;28;20029;-61
2021/09/16 10:05:37;;;;;;;55.40;6.53;;;22.30;94.50;;;;;;5036853;28;20028;-64
2021/09/16 10:08:06;;;;;;;;;;;22.30;94.40;;;;;;5055903;28;20029;-60
2021/09/16 10:10:55;;;;;;;94.75;8.82;;;22.30;94.20;;;;;;5051708;28;19991;-60
2021/09/16 10:13:21;;;;;;;68.72;9.73;;;22.30;94.20;;;;;;5050803;28;20040;-60
2021/09/16 10:15:50;;;;;;;101.28;11.07;;;22.40;94.10;;;;;;5055699;28;20102;-61
2021/09/16 10:18:16;;;;;;;68.80;9.55;;;22.40;94.00;;;;;;5038971;28;20040;-60
2021/09/16 10:20:41;;;;;;;154.68;15.40;;;22.40;94.00;;;;;;5060769;28;20028;-60
2021/09/16 10:23:08;;;;;;;116.53;12.43;;;22.50;94.00;;;;;;5041814;28;20445;-60
2021/09/16 10:25:34;;;;;;;129.07;12.13;;;22.40;94.00;;;;;;5042877;28;20102;-60
2021/09/16 10:28:08;;;;;;;99.88;11.32;;;22.50;93.90;;;;;;5058202;28;20474;-61
2021/09/16 10:30:38;;;;;;;99.05;11.23;;;22.60;93.90;;;;;;5060277;28;20037;-60
2021/09/16 10:33:16;;;;;;;100.10;10.63;;;22.50;93.90;;;;;;5061693;28;20040;-60
2021/09/16 10:36:03;;;;;;;99.35;11.90;;;22.50;93.90;;;;;;5076108;28;20028;-60
2021/09/16 10:38:40;;;;;;;78.72;11.30;;;22.60;93.70;;;;;;5051414;28;20043;-63
2021/09/16 10:41:27;;;;;;;95.90;9.85;;;22.70;93.60;;;;;;5061319;28;20036;-60
2021/09/16 10:43:59;;;;;;;144.15;14.88;;;22.70;93.10;;;;;;5059724;28;20031;-60
2021/09/16 10:46:45;;;;;;;60.95;10.13;;;22.70;92.90;;;;;;5066428;28;20020;-60
2021/09/16 10:49:20;;;;;;;;;;;22.80;92.90;;;;;;5039061;28;20423;-61
2021/09/16 10:51:46;;;;;;;76.75;9.27;;;22.80;92.70;;;;;;5063653;28;19948;-61
2021/09/16 10:54:23;;;;;;;103.28;11.38;;;22.80;92.40;;;;;;5056364;28;20444;-60
2021/09/16 10:57:11;;;;;;;62.50;8.15;;;22.90;92.50;;;;;;5063575;28;20481;-61
2021/09/16 10:59:51;;;;;;;142.65;13.65;;;23.00;92.40;;;;;;5043477;28;20044;-60
2021/09/16 11:02:48;;;;;;;104.93;10.07;;;23.00;92.10;;;;;;5066601;28;20028;-61
2021/09/16 11:05:23;;;;;;;115.57;11.52;;;23.00;91.70;;;;;;5063222;28;20044;-60
2021/09/16 11:07:50;;;;;;;127.25;12.80;;;23.10;91.60;;;;;;5047833;28;20028;-60
2021/09/16 11:10:16;;;;;;;157.90;12.43;;;23.10;91.60;;;;;;5058743;28;20523;-60
2021/09/16 11:13:04;;;;;;;103.05;13.23;;;23.20;91.50;;;;;;5070662;28;20032;-60
2021/09/16 11:15:40;;;;;;;172.77;16.27;;;23.20;91.30;;;;;;5049888;28;20063;-60
2021/09/16 11:18:09;;;;;;;121.57;13.48;;;23.20;91.30;;;;;;5048727;28;20067;-60
2021/09/16 11:20:35;;;;;;;165.77;15.63;;;23.20;91.30;;;;;;5058767;28;20036;-60
2021/09/16 11:23:01;;;;;;;115.82;14.85;;;23.30;91.10;;;;;;5037642;28;20674;-60
2021/09/16 11:25:41;;;;;;;137.82;13.43;;;23.30;91.10;;;;;;5041420;28;20032;-60
2021/09/16 11:28:07;;;;;;;163.35;14.35;;;23.30;91.30;;;;;;5030854;28;20485;-60
2021/09/16 11:30:37;;;;;;;115.13;12.10;;;23.30;90.80;;;;;;5035002;28;20098;-60
2021/09/16 11:33:13;;;;;;;203.98;17.88;;;23.30;90.70;;;;;;5046586;28;20051;-60
2021/09/16 11:35:38;;;;;;;121.57;13.05;;;23.40;90.50;;;;;;5024169;28;20143;-60
2021/09/16 11:38:04;;;;;;;105.88;12.05;;;23.40;90.40;;;;;;5059759;28;20127;-60
2021/09/16 11:40:32;;;;;;;264.25;23.58;;;23.50;90.30;;;;;;5051278;28;20543;-60
2021/09/16 11:42:59;;;;;;;103.70;12.10;;;23.40;90.40;;;;;;5058104;28;20033;-61
2021/09/16 11:45:26;;;;;;;90.20;10.82;;;23.50;90.50;;;;;;5045006;28;20021;-61
2021/09/16 11:48:08;;;;;;;60.47;8.30;;;23.50;90.50;;;;;;5040424;28;20031;-61
2021/09/16 11:50:39;;;;;;;89.53;9.95;;;23.50;90.50;;;;;;5059133;28;20051;-60
2021/09/16 11:53:07;;;;;;;67.50;7.55;;;23.50;90.40;;;;;;5047973;28;20033;-60
2021/09/16 11:55:34;;;;;;;52.15;7.03;;;23.50;90.20;;;;;;5051717;28;20167;-60
2021/09/16 11:58:02;;;;;;;78.70;7.57;;;23.50;90.10;;;;;;5040083;28;20044;-60
2021/09/16 12:00:31;;;;;;;56.78;7.00;;;23.50;89.90;;;;;;5059690;28;20024;-61
2021/09/16 12:02:57;;;;;;;62.65;7.65;;;23.50;89.80;;;;;;5057924;28;20029;-60
2021/09/16 12:05:46;;;;;;;64.80;7.78;;;23.50;89.70;;;;;;5056675;28;20051;-60
2021/09/16 12:08:16;;;;;;;87.35;9.10;;;23.40;89.70;;;;;;5032557;28;20040;-60
2021/09/16 12:10:54;;;;;;;46.72;6.32;;;23.50;89.50;;;;;;5059560;28;20047;-61
2021/09/16 12:13:22;;;;;;;58.38;6.43;;;23.40;89.30;;;;;;5049410;28;20031;-59
2021/09/16 12:15:49;;;;;;;34.50;5.35;;;23.40;89.30;;;;;;5060686;28;20032;-60
2021/09/16 12:18:14;;;;;;;32.85;5.68;;;23.40;89.60;;;;;;5050503;28;20020;-60
2021/09/16 12:20:40;;;;;;;44.00;6.90;;;23.40;89.60;;;;;;5049467;28;20059;-60
2021/09/16 12:23:08;;;;;;;32.58;5.85;;;23.40;89.70;;;;;;5039561;28;20068;-60
2021/09/16 12:26:06;;;;;;;43.53;6.25;;;23.40;89.80;;;;;;5074582;28;20048;-60
2021/09/16 12:28:31;;;;;;;46.38;6.35;;;23.40;89.80;;;;;;5024372;28;20798;-60
2021/09/16 12:31:05;;;;;;;56.53;7.88;;;23.40;89.90;;;;;;5058075;28;20030;-60
2021/09/16 12:33:35;;;;;;;58.50;8.60;;;23.50;90.00;;;;;;5073052;28;20032;-61
2021/09/16 12:36:11;;;;;;;49.10;6.88;;;23.50;90.10;;;;;;5056623;28;20047;-60